createdAt,value
2019-05-26T00:00:09.878Z,9.40
2019-05-26T00:02:38.484Z,9.33
2019-05-26T00:05:08.858Z,8.60
2019-05-26T00:07:37.903Z,9.08
2019-05-26T00:10:09.899Z,10.17
2019-05-26T00:12:38.661Z,10.40
2019-05-26T00:15:08.253Z,10.73
2019-05-26T00:17:36.666Z,10.07
2019-05-26T00:20:08.444Z,10.90
2019-05-26T00:22:37.071Z,12.43
2019-05-26T00:25:07.492Z,11.23
2019-05-26T00:27:35.950Z,11.00
2019-05-26T00:30:07.462Z,12.07
2019-05-26T00:32:35.893Z,11.40
2019-05-26T00:35:08.933Z,11.47
2019-05-26T00:37:49.027Z,12.17
2019-05-26T00:40:08.865Z,11.53
2019-05-26T00:42:38.181Z,12.90
2019-05-26T00:45:08.175Z,11.23
2019-05-26T00:47:36.650Z,10.53
2019-05-26T00:50:07.936Z,12.27
2019-05-26T00:52:36.546Z,11.80
2019-05-26T00:55:06.887Z,12.37
2019-05-26T00:57:35.332Z,12.63
2019-05-26T01:00:09.019Z,11.40
2019-05-26T01:02:38.232Z,13.30
2019-05-26T01:05:08.239Z,12.03
2019-05-26T01:07:37.605Z,13.53
2019-05-26T01:10:11.164Z,12.67
2019-05-26T01:12:39.632Z,11.63
2019-05-26T01:15:09.502Z,12.40
2019-05-26T01:17:38.388Z,12.37
2019-05-26T01:20:07.161Z,12.50
2019-05-26T01:22:35.594Z,13.30
2019-05-26T01:25:05.931Z,12.80
2019-05-26T01:27:34.333Z,12.93
2019-05-26T01:30:02.795Z,12.53
2019-05-26T01:32:31.224Z,13.03
2019-05-26T01:34:59.648Z,12.20
2019-05-26T01:37:28.224Z,11.53
2019-05-26T01:39:56.652Z,13.70
2019-05-26T01:42:25.073Z,14.20
2019-05-26T01:44:53.524Z,14.70
2019-05-26T01:47:21.947Z,15.57
2019-05-26T01:49:50.414Z,14.10
2019-05-26T01:52:18.824Z,15.45
2019-05-26T01:54:47.363Z,13.93
2019-05-26T01:57:15.772Z,14.03
2019-05-26T01:59:44.210Z,15.10
2019-05-26T02:02:12.635Z,14.60
2019-05-26T02:04:41.074Z,13.77
2019-05-26T02:07:09.486Z,14.77
2019-05-26T02:09:37.910Z,15.03
2019-05-26T02:12:06.405Z,15.87
2019-05-26T02:14:34.859Z,14.33
2019-05-26T02:17:03.259Z,14.10
2019-05-26T02:19:31.686Z,14.80
2019-05-26T02:22:00.099Z,14.53
2019-05-26T02:24:28.537Z,14.83
2019-05-26T02:26:56.953Z,15.47
2019-05-26T02:29:25.394Z,16.43
2019-05-26T02:31:53.830Z,15.00
2019-05-26T02:34:22.223Z,14.77
2019-05-26T02:36:50.674Z,17.42
2019-05-26T02:39:19.167Z,14.13
2019-05-26T02:41:47.584Z,14.10
2019-05-26T02:44:16.072Z,17.20
2019-05-26T02:46:44.594Z,15.90
2019-05-26T02:49:13.039Z,15.13
2019-05-26T02:51:41.432Z,16.17
2019-05-26T02:54:09.849Z,16.47
2019-05-26T02:56:39.893Z,16.65
2019-05-26T02:59:09.373Z,14.83
2019-05-26T03:02:03.570Z,16.00
2019-05-26T03:04:29.586Z,17.10
2019-05-26T03:07:00.604Z,17.70
2019-05-26T03:09:30.643Z,19.60
2019-05-26T03:12:01.402Z,20.37
2019-05-26T03:14:32.841Z,19.20
2019-05-26T03:17:02.613Z,18.40
2019-05-26T03:19:34.950Z,18.47
2019-05-26T03:22:04.619Z,16.60
2019-05-26T03:24:33.875Z,16.70
2019-05-26T03:27:02.270Z,17.07
2019-05-26T03:29:30.717Z,16.80
2019-05-26T03:31:59.257Z,17.40
2019-05-26T03:34:27.697Z,18.23
2019-05-26T03:36:56.100Z,17.30
2019-05-26T03:39:42.590Z,18.40
2019-05-26T03:41:54.659Z,16.37
2019-05-26T03:44:23.094Z,17.50
2019-05-26T03:46:51.522Z,18.47
2019-05-26T03:49:19.939Z,18.40
2019-05-26T03:51:48.371Z,16.43
2019-05-26T03:54:16.777Z,17.32
2019-05-26T03:56:45.229Z,18.33
2019-05-26T03:59:13.686Z,18.10
2019-05-26T04:01:42.107Z,19.63
2019-05-26T04:04:10.502Z,19.83
2019-05-26T04:06:39.996Z,19.47
2019-05-26T04:09:09.093Z,18.40
2019-05-26T04:11:37.512Z,18.77
2019-05-26T04:14:05.921Z,17.20
2019-05-26T04:16:34.357Z,16.50
2019-05-26T04:19:02.769Z,17.93
2019-05-26T04:21:31.189Z,17.27
2019-05-26T04:23:59.648Z,17.20
2019-05-26T04:26:28.081Z,16.47
2019-05-26T04:28:56.502Z,17.75
2019-05-26T04:31:25.160Z,19.20
2019-05-26T04:33:53.575Z,17.80
2019-05-26T04:36:22.116Z,18.50
2019-05-26T04:38:50.506Z,16.97
2019-05-26T04:41:18.909Z,16.37
2019-05-26T04:43:47.352Z,15.10
2019-05-26T04:46:15.793Z,15.98
2019-05-26T04:48:44.210Z,14.07
2019-05-26T04:51:12.634Z,13.70
2019-05-26T04:53:41.069Z,13.87
2019-05-26T04:56:10.436Z,14.20
2019-05-26T04:58:38.831Z,14.00
2019-05-26T05:01:07.237Z,15.10
2019-05-26T05:03:35.707Z,15.07
2019-05-26T05:06:04.201Z,16.23
2019-05-26T05:08:32.635Z,14.97
2019-05-26T05:11:01.110Z,15.33
2019-05-26T05:13:29.516Z,15.27
2019-05-26T05:15:57.959Z,14.80
2019-05-26T05:18:26.414Z,16.40
2019-05-26T05:20:54.860Z,16.40
2019-05-26T05:23:23.291Z,16.93
2019-05-26T05:25:51.724Z,18.73
2019-05-26T05:28:20.145Z,17.93
2019-05-26T05:30:48.606Z,15.77
2019-05-26T05:33:17.002Z,18.20
2019-05-26T05:35:45.453Z,14.97
2019-05-26T05:38:13.877Z,16.30
2019-05-26T05:40:56.379Z,17.30
2019-05-26T05:43:12.444Z,17.00
2019-05-26T05:45:41.010Z,17.30
2019-05-26T05:48:09.438Z,16.50
2019-05-26T05:50:39.290Z,18.93
2019-05-26T05:53:08.049Z,17.33
2019-05-26T05:55:36.491Z,19.20
2019-05-26T05:58:04.981Z,19.23
2019-05-26T06:00:33.401Z,17.33
2019-05-26T06:03:01.858Z,16.07
2019-05-26T06:05:30.282Z,18.50
2019-05-26T06:07:58.730Z,17.40
2019-05-26T06:10:27.185Z,19.37
2019-05-26T06:12:55.585Z,20.93
2019-05-26T06:15:24.016Z,21.60
2019-05-26T06:17:52.559Z,23.80
2019-05-26T06:20:20.981Z,20.70
2019-05-26T06:22:49.418Z,21.60
2019-05-26T06:25:18.110Z,21.03
2019-05-26T06:27:46.771Z,19.90
2019-05-26T06:30:15.431Z,23.30
2019-05-26T06:32:43.845Z,20.27
2019-05-26T06:35:12.608Z,21.60
2019-05-26T06:37:41.534Z,22.07
2019-05-26T06:40:10.197Z,20.93
2019-05-26T06:42:38.732Z,22.07
2019-05-26T06:45:07.811Z,23.47
2019-05-26T06:47:36.269Z,22.40
2019-05-26T06:50:05.765Z,22.20
2019-05-26T06:52:34.245Z,19.87
2019-05-26T06:55:02.756Z,21.40
2019-05-26T06:57:31.145Z,19.67
2019-05-26T06:59:59.559Z,17.30
2019-05-26T07:02:27.956Z,20.30
2019-05-26T07:04:56.375Z,19.00
2019-05-26T07:07:24.808Z,17.70
2019-05-26T07:09:53.504Z,19.43
2019-05-26T07:12:22.038Z,17.97
2019-05-26T07:14:50.489Z,18.07
2019-05-26T07:17:20.639Z,17.98
2019-05-26T07:19:49.314Z,15.53
2019-05-26T07:22:17.769Z,15.90
2019-05-26T07:24:46.177Z,15.50
2019-05-26T07:27:14.616Z,14.57
2019-05-26T07:29:43.036Z,14.17
2019-05-26T07:32:12.119Z,13.30
2019-05-26T07:34:40.570Z,13.07
2019-05-26T07:37:09.071Z,13.17
2019-05-26T07:39:37.537Z,12.40
2019-05-26T07:42:10.365Z,13.50
2019-05-26T07:44:36.096Z,13.43
2019-05-26T07:47:04.591Z,14.00
2019-05-26T07:49:33.024Z,12.40
2019-05-26T07:52:01.443Z,12.30
2019-05-26T07:54:29.858Z,11.50
2019-05-26T07:56:58.265Z,12.97
2019-05-26T07:59:26.724Z,9.80
2019-05-26T08:01:55.134Z,10.20
2019-05-26T08:04:23.584Z,9.57
2019-05-26T08:06:52.015Z,11.13
2019-05-26T08:09:20.668Z,9.60
2019-05-26T08:11:49.058Z,10.10
2019-05-26T08:14:17.493Z,9.43
2019-05-26T08:16:45.916Z,9.47
2019-05-26T08:19:14.356Z,9.80
2019-05-26T08:21:42.788Z,9.50
2019-05-26T08:24:11.185Z,9.03
2019-05-26T08:26:39.582Z,8.90
2019-05-26T08:29:08.003Z,9.03
2019-05-26T08:31:36.498Z,8.40
2019-05-26T08:34:04.970Z,7.70
2019-05-26T08:36:33.381Z,7.70
2019-05-26T08:39:01.816Z,7.77
2019-05-26T08:41:30.318Z,8.37
2019-05-26T08:43:58.730Z,8.63
2019-05-26T08:46:27.143Z,6.85
2019-05-26T08:48:55.565Z,7.00
2019-05-26T08:51:23.974Z,8.40
2019-05-26T08:53:52.400Z,8.00
2019-05-26T08:56:20.824Z,8.60
2019-05-26T08:58:49.235Z,8.03
2019-05-26T09:01:17.699Z,8.13
2019-05-26T09:03:46.132Z,7.90
2019-05-26T09:06:14.558Z,8.57
2019-05-26T09:08:43.002Z,7.47
2019-05-26T09:11:11.403Z,7.20
2019-05-26T09:13:39.786Z,7.70
2019-05-26T09:16:08.201Z,6.50
2019-05-26T09:18:36.601Z,6.30
2019-05-26T09:21:05.004Z,5.90
2019-05-26T09:23:33.433Z,5.07
2019-05-26T09:26:01.861Z,6.20
2019-05-26T09:28:30.283Z,6.00
2019-05-26T09:30:58.718Z,4.90
2019-05-26T09:33:27.123Z,4.30
2019-05-26T09:35:55.615Z,4.67
2019-05-26T09:38:23.968Z,3.93
2019-05-26T09:40:52.366Z,3.73
2019-05-26T09:43:20.781Z,4.80
2019-05-26T09:45:49.186Z,4.43
2019-05-26T09:48:17.598Z,3.33
2019-05-26T09:50:46.013Z,3.40
2019-05-26T09:53:14.467Z,3.70
2019-05-26T09:55:43.218Z,3.90
2019-05-26T09:58:11.616Z,2.70
2019-05-26T10:00:40.112Z,3.30
2019-05-26T10:03:08.530Z,3.13
2019-05-26T10:05:36.943Z,3.20
2019-05-26T10:08:05.364Z,2.30
2019-05-26T10:10:33.767Z,2.60
2019-05-26T10:13:02.173Z,2.67
2019-05-26T10:15:30.567Z,2.23
2019-05-26T10:17:58.975Z,2.53
2019-05-26T10:20:27.379Z,1.70
2019-05-26T10:22:55.771Z,2.08
2019-05-26T10:25:24.213Z,2.62
2019-05-26T10:27:52.641Z,2.20
2019-05-26T10:30:21.215Z,2.80
2019-05-26T10:32:49.642Z,2.23
2019-05-26T10:35:18.105Z,2.53
2019-05-26T10:37:46.536Z,2.00
2019-05-26T10:40:15.304Z,2.97
2019-05-26T10:42:43.743Z,2.40
2019-05-26T10:45:12.576Z,3.03
2019-05-26T10:47:40.998Z,2.57
2019-05-26T10:50:10.439Z,2.90
2019-05-26T10:52:38.905Z,2.20
2019-05-26T10:55:07.887Z,2.47
2019-05-26T10:57:36.331Z,2.13
2019-05-26T11:00:08.121Z,1.80
2019-05-26T11:02:36.521Z,2.00
2019-05-26T11:05:06.476Z,2.03
2019-05-26T11:07:34.880Z,1.83
2019-05-26T11:10:04.274Z,1.90
2019-05-26T11:12:32.672Z,2.50
2019-05-26T11:15:01.085Z,1.90
2019-05-26T11:17:29.492Z,2.12
2019-05-26T11:19:57.887Z,2.10
2019-05-26T11:22:26.295Z,1.70
2019-05-26T11:24:54.790Z,1.67
2019-05-26T11:27:23.210Z,1.87
2019-05-26T11:29:51.606Z,2.30
2019-05-26T11:32:20.051Z,1.82
2019-05-26T11:35:00.595Z,2.23
2019-05-26T11:37:18.601Z,2.20
2019-05-26T11:39:47.081Z,2.03
2019-05-26T11:42:15.628Z,2.10
2019-05-26T11:44:44.207Z,1.90
2019-05-26T11:47:12.640Z,2.07
2019-05-26T11:49:41.069Z,1.70
2019-05-26T11:52:09.482Z,2.00
2019-05-26T11:54:37.891Z,2.50
2019-05-26T11:57:06.449Z,2.00
2019-05-26T11:59:34.874Z,1.70
2019-05-26T12:02:03.360Z,2.20
2019-05-26T12:04:31.808Z,2.30
2019-05-26T12:07:00.214Z,2.20
2019-05-26T12:09:28.652Z,2.50
2019-05-26T12:11:57.086Z,2.52
2019-05-26T12:14:34.329Z,2.50
2019-05-26T12:16:55.667Z,2.70
2019-05-26T12:19:24.083Z,2.57
2019-05-26T12:21:52.513Z,2.50
2019-05-26T12:24:20.916Z,2.47
2019-05-26T12:26:49.335Z,2.53
2019-05-26T12:29:17.734Z,2.80
2019-05-26T12:31:46.258Z,2.47
2019-05-26T12:34:14.656Z,2.20
2019-05-26T12:36:43.100Z,2.10
2019-05-26T12:39:11.605Z,2.43
2019-05-26T12:41:40.091Z,2.57
2019-05-26T12:44:10.967Z,2.10
2019-05-26T12:46:38.674Z,2.30
2019-05-26T12:49:07.094Z,2.20
2019-05-26T12:51:35.550Z,2.60
2019-05-26T12:54:04.212Z,2.60
2019-05-26T12:56:32.626Z,1.90
2019-05-26T12:59:01.073Z,1.70
2019-05-26T13:01:29.554Z,2.03
2019-05-26T13:03:59.394Z,2.03
2019-05-26T13:06:27.851Z,1.80
2019-05-26T13:08:56.280Z,1.80
2019-05-26T13:11:24.693Z,2.00
2019-05-26T13:13:53.092Z,1.80
2019-05-26T13:16:21.611Z,2.20
2019-05-26T13:18:50.030Z,2.07
2019-05-26T13:21:18.439Z,2.20
2019-05-26T13:23:46.867Z,2.17
2019-05-26T13:26:15.270Z,2.13
2019-05-26T13:28:43.693Z,1.50
2019-05-26T13:31:12.134Z,2.00
2019-05-26T13:33:40.531Z,2.30
2019-05-26T13:36:08.966Z,1.80
2019-05-26T13:38:37.357Z,1.93
2019-05-26T13:41:05.788Z,1.80
2019-05-26T13:43:34.250Z,1.67
2019-05-26T13:46:02.662Z,2.00
2019-05-26T13:48:31.070Z,2.00
2019-05-26T13:50:59.501Z,2.10
2019-05-26T13:53:27.984Z,2.50
2019-05-26T13:55:56.389Z,1.80
2019-05-26T13:58:24.812Z,2.20
2019-05-26T14:00:53.302Z,2.10
2019-05-26T14:03:24.215Z,2.10
2019-05-26T14:05:51.898Z,2.30
2019-05-26T14:08:20.857Z,2.00
2019-05-26T14:10:49.620Z,2.20
2019-05-26T14:13:18.390Z,2.90
2019-05-26T14:15:48.721Z,2.30
2019-05-26T14:18:18.326Z,2.13
2019-05-26T14:20:47.259Z,2.57
2019-05-26T14:23:15.679Z,2.63
2019-05-26T14:25:44.124Z,2.70
2019-05-26T14:28:12.582Z,2.67
2019-05-26T14:30:40.980Z,2.63
2019-05-26T14:33:09.393Z,2.43
2019-05-26T14:35:37.910Z,2.20
2019-05-26T14:38:06.388Z,2.07
2019-05-26T14:40:34.821Z,2.77
2019-05-26T14:43:03.243Z,2.20
2019-05-26T14:45:31.660Z,2.45
2019-05-26T14:48:00.149Z,2.10
2019-05-26T14:50:28.580Z,2.37
2019-05-26T14:52:56.994Z,2.40
2019-05-26T14:55:25.421Z,2.30
2019-05-26T14:57:53.826Z,1.90
2019-05-26T15:00:24.315Z,1.93
2019-05-26T15:02:52.704Z,2.13
2019-05-26T15:05:21.734Z,1.92
2019-05-26T15:07:50.156Z,2.17
2019-05-26T15:10:18.656Z,2.50
2019-05-26T15:12:47.062Z,1.90
2019-05-26T15:15:16.600Z,2.00
2019-05-26T15:17:45.001Z,2.10
2019-05-26T15:20:14.940Z,2.43
2019-05-26T15:22:43.379Z,2.50
2019-05-26T15:25:12.072Z,2.50
2019-05-26T15:27:40.464Z,2.30
2019-05-26T15:30:11.323Z,2.57
2019-05-26T15:32:39.773Z,2.50
2019-05-26T15:35:08.994Z,2.40
2019-05-26T15:37:37.478Z,2.40
2019-05-26T15:40:07.702Z,2.30
2019-05-26T15:42:36.410Z,2.83
2019-05-26T15:45:06.550Z,3.03
2019-05-26T15:47:35.039Z,2.50
2019-05-26T15:50:05.110Z,2.53
2019-05-26T15:52:33.576Z,2.70
2019-05-26T15:55:02.001Z,2.50
2019-05-26T15:57:31.457Z,2.63
2019-05-26T16:00:00.017Z,2.40
2019-05-26T16:02:28.466Z,2.70
2019-05-26T16:04:58.914Z,2.50
2019-05-26T16:07:27.092Z,2.47
2019-05-26T16:09:56.529Z,2.33
2019-05-26T16:12:24.932Z,2.65
2019-05-26T16:14:53.422Z,2.50
2019-05-26T16:17:21.903Z,2.30
2019-05-26T16:19:50.313Z,2.70
2019-05-26T16:22:18.712Z,2.60
2019-05-26T16:24:47.172Z,3.07
2019-05-26T16:27:19.547Z,3.10
2019-05-26T16:29:46.700Z,3.00
2019-05-26T16:32:18.652Z,2.75
2019-05-26T16:34:45.415Z,2.70
2019-05-26T16:37:13.798Z,3.17
2019-05-26T16:39:42.342Z,2.77
2019-05-26T16:42:10.767Z,2.50
2019-05-26T16:44:39.225Z,3.30
2019-05-26T16:47:07.641Z,2.87
2019-05-26T16:49:36.156Z,2.60
2019-05-26T16:52:04.949Z,3.13
2019-05-26T16:54:33.446Z,3.62
2019-05-26T16:57:01.923Z,2.70
2019-05-26T16:59:30.354Z,2.90
2019-05-26T17:01:58.799Z,2.70
2019-05-26T17:04:27.235Z,3.13
2019-05-26T17:06:55.688Z,3.13
2019-05-26T17:09:24.119Z,3.00
2019-05-26T17:11:52.575Z,3.23
2019-05-26T17:14:21.068Z,2.80
2019-05-26T17:16:49.487Z,3.07
2019-05-26T17:19:17.903Z,3.17
2019-05-26T17:21:47.454Z,2.93
2019-05-26T17:24:15.920Z,3.17
2019-05-26T17:26:46.457Z,2.63
2019-05-26T17:29:14.859Z,3.20
2019-05-26T17:31:43.315Z,2.87
2019-05-26T17:34:11.914Z,2.80
2019-05-26T17:36:40.349Z,3.23
2019-05-26T17:39:09.482Z,2.80
2019-05-26T17:41:37.979Z,3.27
2019-05-26T17:44:06.640Z,2.87
2019-05-26T17:46:35.154Z,3.17
2019-05-26T17:49:03.566Z,2.93
2019-05-26T17:51:32.278Z,2.83
2019-05-26T17:54:00.771Z,2.87
2019-05-26T17:56:29.359Z,2.70
2019-05-26T17:58:57.764Z,2.67
2019-05-26T18:01:26.200Z,2.93
2019-05-26T18:03:54.650Z,2.50
2019-05-26T18:06:23.081Z,2.60
2019-05-26T18:08:51.523Z,2.67
2019-05-26T18:11:20.143Z,2.87
2019-05-26T18:13:48.619Z,4.10
2019-05-26T18:16:18.157Z,4.30
2019-05-26T18:18:46.712Z,4.50
2019-05-26T18:21:15.208Z,3.90
2019-05-26T18:23:43.683Z,3.53
2019-05-26T18:26:12.083Z,4.57
2019-05-26T18:28:40.482Z,4.80
2019-05-26T18:31:08.900Z,8.30
2019-05-26T18:33:37.332Z,9.83
2019-05-26T18:36:05.832Z,3.27
2019-05-26T18:38:34.254Z,2.53
2019-05-26T18:41:02.664Z,2.83
2019-05-26T18:43:31.068Z,2.70
2019-05-26T18:45:59.496Z,2.75
2019-05-26T18:48:27.903Z,2.30
2019-05-26T18:50:56.336Z,3.20
2019-05-26T18:53:24.812Z,2.83
2019-05-26T18:55:54.105Z,2.50
2019-05-26T18:58:22.669Z,2.47
2019-05-26T19:00:51.159Z,2.37
2019-05-26T19:03:19.690Z,2.50
2019-05-26T19:05:48.630Z,2.50
2019-05-26T19:08:17.323Z,2.30
2019-05-26T19:10:45.910Z,2.20
2019-05-26T19:13:14.419Z,2.37
2019-05-26T19:15:42.842Z,2.30
2019-05-26T19:18:20.016Z,2.57
2019-05-26T19:20:41.664Z,2.60
2019-05-26T19:23:10.201Z,2.97
2019-05-26T19:25:38.598Z,3.47
2019-05-26T19:28:08.212Z,2.30
2019-05-26T19:30:37.035Z,2.73
2019-05-26T19:33:06.113Z,3.07
2019-05-26T19:35:34.574Z,2.80
2019-05-26T19:38:03.077Z,3.10
2019-05-26T19:40:31.953Z,3.37
2019-05-26T19:43:00.952Z,3.47
2019-05-26T19:45:30.202Z,3.10
2019-05-26T19:47:58.691Z,3.20
2019-05-26T19:50:27.120Z,3.20
2019-05-26T19:52:55.641Z,2.80
2019-05-26T19:55:24.075Z,2.70
2019-05-26T19:57:52.581Z,2.53
2019-05-26T20:00:21.607Z,2.80
2019-05-26T20:02:50.007Z,2.70
2019-05-26T20:05:19.312Z,2.30
2019-05-26T20:07:47.827Z,2.07
2019-05-26T20:10:17.525Z,2.10
2019-05-26T20:12:46.324Z,2.40
2019-05-26T20:15:15.213Z,2.37
2019-05-26T20:17:44.153Z,2.40
2019-05-26T20:20:14.600Z,2.40
2019-05-26T20:22:43.058Z,2.57
2019-05-26T20:25:12.258Z,2.97
2019-05-26T20:27:40.674Z,2.47
2019-05-26T20:30:09.824Z,2.30
2019-05-26T20:32:38.246Z,2.20
2019-05-26T20:35:08.475Z,2.13
2019-05-26T20:37:37.029Z,2.10
2019-05-26T20:40:08.253Z,2.40
2019-05-26T20:42:36.682Z,2.53
2019-05-26T20:45:07.303Z,2.60
2019-05-26T20:47:36.054Z,2.80
2019-05-26T20:50:08.494Z,2.83
2019-05-26T20:52:36.917Z,2.90
2019-05-26T20:55:09.855Z,2.90
2019-05-26T20:57:38.449Z,3.47
2019-05-26T21:00:13.262Z,3.10
2019-05-26T21:02:42.392Z,5.20
2019-05-26T21:05:11.139Z,4.07
2019-05-26T21:07:39.662Z,4.53
2019-05-26T21:10:08.516Z,4.80
2019-05-26T21:12:36.917Z,4.30
2019-05-26T21:15:06.865Z,4.10
2019-05-26T21:17:35.270Z,4.80
2019-05-26T21:20:05.822Z,4.50
2019-05-26T21:22:34.302Z,4.37
2019-05-26T21:25:02.715Z,4.30
2019-05-26T21:27:31.102Z,4.63
2019-05-26T21:29:59.579Z,4.65
2019-05-26T21:32:31.289Z,4.63
2019-05-26T21:34:58.130Z,4.85
2019-05-26T21:37:26.564Z,4.80
2019-05-26T21:39:54.970Z,4.57
2019-05-26T21:42:23.431Z,4.63
2019-05-26T21:44:51.891Z,5.00
2019-05-26T21:47:20.316Z,4.00
2019-05-26T21:49:48.738Z,4.10
2019-05-26T21:52:17.153Z,4.60
2019-05-26T21:54:45.627Z,4.27
2019-05-26T21:57:14.100Z,4.33
2019-05-26T21:59:42.537Z,4.73
2019-05-26T22:02:11.880Z,4.03
2019-05-26T22:04:40.300Z,4.60
2019-05-26T22:07:08.718Z,5.70
2019-05-26T22:09:37.126Z,5.80
2019-05-26T22:12:05.684Z,6.10
2019-05-26T22:14:34.144Z,7.40
2019-05-26T22:17:02.588Z,6.20
2019-05-26T22:19:31.103Z,7.63
2019-05-26T22:22:00.477Z,7.25
2019-05-26T22:24:28.954Z,7.10
2019-05-26T22:26:57.358Z,7.30
2019-05-26T22:29:25.786Z,6.63
2019-05-26T22:31:54.211Z,7.13
2019-05-26T22:34:22.672Z,8.00
2019-05-26T22:36:51.163Z,6.90
2019-05-26T22:39:20.795Z,7.60
2019-05-26T22:41:49.211Z,7.30
2019-05-26T22:44:17.605Z,7.70
2019-05-26T22:46:46.040Z,7.30
2019-05-26T22:49:14.506Z,8.20
2019-05-26T22:51:42.901Z,7.80
2019-05-26T22:54:11.352Z,7.90
2019-05-26T22:56:39.864Z,7.40
2019-05-26T22:59:08.291Z,8.25
2019-05-26T23:01:36.698Z,7.53
2019-05-26T23:04:05.165Z,8.00
2019-05-26T23:06:33.596Z,8.85
2019-05-26T23:09:02.032Z,7.33
2019-05-26T23:11:30.542Z,7.90
2019-05-26T23:13:59.003Z,7.00
2019-05-26T23:16:27.494Z,7.73
2019-05-26T23:18:55.910Z,7.03
2019-05-26T23:21:24.322Z,7.77
2019-05-26T23:23:52.729Z,7.30
2019-05-26T23:26:21.140Z,8.00
2019-05-26T23:28:49.616Z,7.27
2019-05-26T23:31:18.067Z,7.90
2019-05-26T23:33:46.480Z,7.23
2019-05-26T23:36:14.889Z,7.77
2019-05-26T23:38:43.341Z,7.23
2019-05-26T23:41:11.832Z,7.10
2019-05-26T23:43:41.153Z,7.30
2019-05-26T23:46:09.586Z,8.10
2019-05-26T23:48:38.070Z,7.20
2019-05-26T23:51:06.557Z,8.57
2019-05-26T23:53:35.019Z,7.80
2019-05-26T23:56:03.446Z,7.53
2019-05-26T23:58:31.885Z,6.43
